sensor_id;sensor_type;location;lat;lon;timestamp;P1;durP1;ratioP1;P2;durP2;ratioP2
40252;SDS011;25972;51.854;4.534;2023-01-01T00:00:12;13.80;;;11.48;;
40252;SDS011;25972;51.854;4.534;2023-01-01T00:02:39;16.10;;;11.95;;
40252;SDS011;25972;51.854;4.534;2023-01-01T00:05:05;14.27;;;11.27;;
40252;SDS011;25972;51.854;4.534;2023-01-01T00:07:31;13.93;;;12.30;;
40252;SDS011;25972;51.854;4.534;2023-01-01T00:09:57;11.18;;;10.15;;
40252;SDS011;25972;51.854;4.534;2023-01-01T00:12:42;15.63;;;11.82;;
40252;SDS011;25972;51.854;4.534;2023-01-01T00:15:08;18.80;;;12.15;;
40252;SDS011;25972;51.854;4.534;2023-01-01T00:17:33;12.23;;;10.75;;
40252;SDS011;25972;51.854;4.534;2023-01-01T00:20:02;13.95;;;10.98;;
40252;SDS011;25972;51.854;4.534;2023-01-01T00:22:28;12.88;;;10.68;;
40252;SDS011;25972;51.854;4.534;2023-01-01T00:24:54;14.13;;;11.15;;
40252;SDS011;25972;51.854;4.534;2023-01-01T00:27:20;11.60;;;10.30;;
40252;SDS011;25972;51.854;4.534;2023-01-01T00:29:45;15.32;;;10.88;;
40252;SDS011;25972;51.854;4.534;2023-01-01T00:32:11;15.32;;;11.63;;
40252;SDS011;25972;51.854;4.534;2023-01-01T00:34:37;11.43;;;10.20;;
40252;SDS011;25972;51.854;4.534;2023-01-01T00:37:03;11.73;;;10.60;;
40252;SDS011;25972;51.854;4.534;2023-01-01T00:39:29;10.18;;;9.27;;
40252;SDS011;25972;51.854;4.534;2023-01-01T00:41:54;11.82;;;9.93;;
40252;SDS011;25972;51.854;4.534;2023-01-01T00:44:20;15.23;;;9.50;;
40252;SDS011;25972;51.854;4.534;2023-01-01T00:46:46;12.15;;;10.68;;
40252;SDS011;25972;51.854;4.534;2023-01-01T00:49:12;21.02;;;11.90;;
40252;SDS011;25972;51.854;4.534;2023-01-01T00:51:38;15.10;;;11.02;;
40252;SDS011;25972;51.854;4.534;2023-01-01T00:54:03;16.05;;;10.40;;
40252;SDS011;25972;51.854;4.534;2023-01-01T00:56:30;13.85;;;10.48;;
40252;SDS011;25972;51.854;4.534;2023-01-01T00:58:55;15.48;;;10.23;;
40252;SDS011;25972;51.854;4.534;2023-01-01T01:01:21;11.68;;;9.95;;
40252;SDS011;25972;51.854;4.534;2023-01-01T01:03:47;11.18;;;10.00;;
40252;SDS011;25972;51.854;4.534;2023-01-01T01:06:14;11.38;;;10.20;;
40252;SDS011;25972;51.854;4.534;2023-01-01T01:08:43;10.80;;;9.88;;
40252;SDS011;25972;51.854;4.534;2023-01-01T01:13:36;14.23;;;9.43;;
40252;SDS011;25972;51.854;4.534;2023-01-01T01:16:07;10.77;;;9.52;;
40252;SDS011;25972;51.854;4.534;2023-01-01T01:18:35;9.73;;;8.90;;
40252;SDS011;25972;51.854;4.534;2023-01-01T01:21:01;9.90;;;8.90;;
40252;SDS011;25972;51.854;4.534;2023-01-01T01:23:26;13.88;;;10.15;;
40252;SDS011;25972;51.854;4.534;2023-01-01T01:25:53;10.20;;;9.30;;
40252;SDS011;25972;51.854;4.534;2023-01-01T01:28:19;12.88;;;9.70;;
40252;SDS011;25972;51.854;4.534;2023-01-01T01:30:45;11.65;;;9.43;;
40252;SDS011;25972;51.854;4.534;2023-01-01T01:33:11;10.68;;;9.57;;
40252;SDS011;25972;51.854;4.534;2023-01-01T01:35:37;11.13;;;10.02;;
40252;SDS011;25972;51.854;4.534;2023-01-01T01:38:03;13.55;;;10.00;;
40252;SDS011;25972;51.854;4.534;2023-01-01T01:40:28;12.40;;;9.63;;
40252;SDS011;25972;51.854;4.534;2023-01-01T01:42:54;10.93;;;9.93;;
40252;SDS011;25972;51.854;4.534;2023-01-01T01:45:20;10.43;;;9.45;;
40252;SDS011;25972;51.854;4.534;2023-01-01T01:47:57;10.68;;;9.50;;
40252;SDS011;25972;51.854;4.534;2023-01-01T01:50:24;9.48;;;8.68;;
40252;SDS011;25972;51.854;4.534;2023-01-01T01:55:59;11.82;;;9.63;;
40252;SDS011;25972;51.854;4.534;2023-01-01T01:58:29;11.02;;;9.98;;
40252;SDS011;25972;51.854;4.534;2023-01-01T02:00:56;11.70;;;9.57;;
40252;SDS011;25972;51.854;4.534;2023-01-01T02:03:23;10.88;;;9.43;;
40252;SDS011;25972;51.854;4.534;2023-01-01T02:06:06;10.30;;;9.32;;
40252;SDS011;25972;51.854;4.534;2023-01-01T02:08:32;9.95;;;9.05;;
40252;SDS011;25972;51.854;4.534;2023-01-01T02:10:59;9.95;;;9.15;;
40252;SDS011;25972;51.854;4.534;2023-01-01T02:13:26;9.95;;;9.05;;
40252;SDS011;25972;51.854;4.534;2023-01-01T02:15:59;10.10;;;9.27;;
40252;SDS011;25972;51.854;4.534;2023-01-01T02:26:57;13.98;;;10.50;;
40252;SDS011;25972;51.854;4.534;2023-01-01T02:29:47;10.00;;;9.20;;
40252;SDS011;25972;51.854;4.534;2023-01-01T02:32:38;11.55;;;10.38;;
40252;SDS011;25972;51.854;4.534;2023-01-01T02:35:13;10.57;;;9.68;;
40252;SDS011;25972;51.854;4.534;2023-01-01T02:41:02;9.35;;;8.45;;
40252;SDS011;25972;51.854;4.534;2023-01-01T02:43:31;10.23;;;9.32;;
40252;SDS011;25972;51.854;4.534;2023-01-01T02:45:56;12.98;;;9.52;;
40252;SDS011;25972;51.854;4.534;2023-01-01T02:48:41;10.80;;;9.68;;
40252;SDS011;25972;51.854;4.534;2023-01-01T02:54:11;10.93;;;9.90;;
40252;SDS011;25972;51.854;4.534;2023-01-01T02:56:47;11.32;;;10.20;;
40252;SDS011;25972;51.854;4.534;2023-01-01T02:59:20;10.77;;;9.73;;
40252;SDS011;25972;51.854;4.534;2023-01-01T03:05:05;10.50;;;9.60;;
40252;SDS011;25972;51.854;4.534;2023-01-01T03:13:04;14.00;;;10.60;;
40252;SDS011;25972;51.854;4.534;2023-01-01T03:18:23;11.77;;;10.10;;
40252;SDS011;25972;51.854;4.534;2023-01-01T03:20:57;12.40;;;10.50;;
40252;SDS011;25972;51.854;4.534;2023-01-01T03:23:28;10.60;;;9.80;;
40252;SDS011;25972;51.854;4.534;2023-01-01T03:26:00;11.02;;;10.13;;
40252;SDS011;25972;51.854;4.534;2023-01-01T03:28:35;11.02;;;9.65;;
40252;SDS011;25972;51.854;4.534;2023-01-01T03:31:07;12.32;;;10.48;;
40252;SDS011;25972;51.854;4.534;2023-01-01T03:33:39;13.80;;;10.20;;
40252;SDS011;25972;51.854;4.534;2023-01-01T03:36:10;15.05;;;9.52;;
40252;SDS011;25972;51.854;4.534;2023-01-01T03:44:17;12.23;;;9.65;;
40252;SDS011;25972;51.854;4.534;2023-01-01T03:46:44;13.85;;;9.55;;
40252;SDS011;25972;51.854;4.534;2023-01-01T03:49:11;11.13;;;10.02;;
40252;SDS011;25972;51.854;4.534;2023-01-01T04:00:16;16.13;;;9.25;;
40252;SDS011;25972;51.854;4.534;2023-01-01T04:05:39;10.07;;;9.05;;
40252;SDS011;25972;51.854;4.534;2023-01-01T04:08:06;15.38;;;9.60;;
40252;SDS011;25972;51.854;4.534;2023-01-01T04:10:34;14.52;;;9.43;;
40252;SDS011;25972;51.854;4.534;2023-01-01T04:13:04;11.70;;;9.60;;
40252;SDS011;25972;51.854;4.534;2023-01-01T04:15:30;9.90;;;8.90;;
40252;SDS011;25972;51.854;4.534;2023-01-01T04:17:56;19.20;;;9.52;;
40252;SDS011;25972;51.854;4.534;2023-01-01T04:20:23;15.55;;;9.77;;
40252;SDS011;25972;51.854;4.534;2023-01-01T04:22:50;9.32;;;8.52;;
40252;SDS011;25972;51.854;4.534;2023-01-01T04:25:16;9.38;;;8.45;;
40252;SDS011;25972;51.854;4.534;2023-01-01T04:27:42;9.88;;;8.55;;
40252;SDS011;25972;51.854;4.534;2023-01-01T04:30:09;11.38;;;9.40;;
40252;SDS011;25972;51.854;4.534;2023-01-01T04:32:37;9.60;;;8.70;;
40252;SDS011;25972;51.854;4.534;2023-01-01T04:35:04;10.38;;;8.80;;
40252;SDS011;25972;51.854;4.534;2023-01-01T04:37:30;9.73;;;8.77;;
40252;SDS011;25972;51.854;4.534;2023-01-01T04:39:59;11.27;;;9.15;;
40252;SDS011;25972;51.854;4.534;2023-01-01T04:42:24;10.25;;;9.00;;
40252;SDS011;25972;51.854;4.534;2023-01-01T04:44:50;10.10;;;9.10;;
40252;SDS011;25972;51.854;4.534;2023-01-01T04:47:17;9.90;;;9.10;;
40252;SDS011;25972;51.854;4.534;2023-01-01T04:49:42;10.50;;;9.43;;
40252;SDS011;25972;51.854;4.534;2023-01-01T04:52:08;10.57;;;9.57;;
40252;SDS011;25972;51.854;4.534;2023-01-01T04:54:34;10.15;;;9.25;;
40252;SDS011;25972;51.854;4.534;2023-01-01T04:57:00;10.68;;;9.50;;
40252;SDS011;25972;51.854;4.534;2023-01-01T04:59:25;10.38;;;9.23;;
40252;SDS011;25972;51.854;4.534;2023-01-01T05:01:54;10.60;;;9.15;;
40252;SDS011;25972;51.854;4.534;2023-01-01T05:04:20;9.68;;;8.88;;
40252;SDS011;25972;51.854;4.534;2023-01-01T05:06:46;9.80;;;9.00;;
40252;SDS011;25972;51.854;4.534;2023-01-01T05:09:12;10.40;;;9.40;;
40252;SDS011;25972;51.854;4.534;2023-01-01T05:11:38;10.48;;;9.57;;
40252;SDS011;25972;51.854;4.534;2023-01-01T05:14:04;10.80;;;9.90;;
40252;SDS011;25972;51.854;4.534;2023-01-01T05:16:34;9.85;;;9.13;;
40252;SDS011;25972;51.854;4.534;2023-01-01T05:19:02;10.63;;;9.73;;
40252;SDS011;25972;51.854;4.534;2023-01-01T05:21:32;13.57;;;9.35;;
40252;SDS011;25972;51.854;4.534;2023-01-01T05:24:04;10.82;;;9.38;;
40252;SDS011;25972;51.854;4.534;2023-01-01T05:26:33;10.98;;;10.07;;
40252;SDS011;25972;51.854;4.534;2023-01-01T05:29:01;11.18;;;10.18;;
40252;SDS011;25972;51.854;4.534;2023-01-01T05:31:28;11.05;;;10.15;;
40252;SDS011;25972;51.854;4.534;2023-01-01T05:33:55;11.05;;;9.93;;
40252;SDS011;25972;51.854;4.534;2023-01-01T05:36:22;11.45;;;10.55;;
40252;SDS011;25972;51.854;4.534;2023-01-01T05:38:50;11.52;;;10.52;;
40252;SDS011;25972;51.854;4.534;2023-01-01T05:41:17;10.98;;;10.18;;
40252;SDS011;25972;51.854;4.534;2023-01-01T05:43:44;11.57;;;10.45;;
40252;SDS011;25972;51.854;4.534;2023-01-01T05:46:11;11.00;;;9.90;;
40252;SDS011;25972;51.854;4.534;2023-01-01T05:48:39;10.60;;;9.75;;
40252;SDS011;25972;51.854;4.534;2023-01-01T05:51:06;10.10;;;9.20;;
40252;SDS011;25972;51.854;4.534;2023-01-01T05:53:34;10.07;;;9.23;;
40252;SDS011;25972;51.854;4.534;2023-01-01T05:56:00;10.82;;;9.82;;
40252;SDS011;25972;51.854;4.534;2023-01-01T05:58:27;10.90;;;10.00;;
40252;SDS011;25972;51.854;4.534;2023-01-01T06:00:54;10.55;;;9.48;;
40252;SDS011;25972;51.854;4.534;2023-01-01T06:03:20;10.60;;;9.90;;
40252;SDS011;25972;51.854;4.534;2023-01-01T06:05:46;10.63;;;9.73;;
40252;SDS011;25972;51.854;4.534;2023-01-01T06:08:12;9.80;;;9.00;;
40252;SDS011;25972;51.854;4.534;2023-01-01T06:10:39;10.52;;;9.60;;
40252;SDS011;25972;51.854;4.534;2023-01-01T06:13:05;10.40;;;9.18;;
40252;SDS011;25972;51.854;4.534;2023-01-01T06:15:30;9.70;;;8.90;;
40252;SDS011;25972;51.854;4.534;2023-01-01T06:17:56;9.55;;;8.75;;
40252;SDS011;25972;51.854;4.534;2023-01-01T06:20:23;9.90;;;9.18;;
40252;SDS011;25972;51.854;4.534;2023-01-01T06:22:49;10.00;;;9.20;;
40252;SDS011;25972;51.854;4.534;2023-01-01T06:25:15;9.80;;;8.88;;
40252;SDS011;25972;51.854;4.534;2023-01-01T06:27:41;9.95;;;9.10;;
40252;SDS011;25972;51.854;4.534;2023-01-01T06:30:07;9.65;;;9.05;;
40252;SDS011;25972;51.854;4.534;2023-01-01T06:32:33;10.45;;;9.75;;
40252;SDS011;25972;51.854;4.534;2023-01-01T06:34:59;10.95;;;9.93;;
40252;SDS011;25972;51.854;4.534;2023-01-01T06:37:26;10.50;;;9.80;;
40252;SDS011;25972;51.854;4.534;2023-01-01T06:39:53;10.25;;;9.20;;
40252;SDS011;25972;51.854;4.534;2023-01-01T06:42:18;11.77;;;9.63;;
40252;SDS011;25972;51.854;4.534;2023-01-01T06:44:44;9.73;;;8.93;;
40252;SDS011;25972;51.854;4.534;2023-01-01T06:47:10;10.32;;;9.32;;
40252;SDS011;25972;51.854;4.534;2023-01-01T06:49:36;9.32;;;8.63;;
40252;SDS011;25972;51.854;4.534;2023-01-01T06:52:01;9.43;;;8.50;;
40252;SDS011;25972;51.854;4.534;2023-01-01T06:54:27;9.50;;;8.70;;
40252;SDS011;25972;51.854;4.534;2023-01-01T06:56:53;9.80;;;8.80;;
40252;SDS011;25972;51.854;4.534;2023-01-01T06:59:19;9.93;;;9.02;;
40252;SDS011;25972;51.854;4.534;2023-01-01T07:01:45;9.77;;;9.02;;
40252;SDS011;25972;51.854;4.534;2023-01-01T07:04:12;9.98;;;9.18;;
40252;SDS011;25972;51.854;4.534;2023-01-01T07:06:40;10.60;;;8.80;;
40252;SDS011;25972;51.854;4.534;2023-01-01T07:09:06;9.00;;;8.30;;
40252;SDS011;25972;51.854;4.534;2023-01-01T07:11:33;11.98;;;9.07;;
40252;SDS011;25972;51.854;4.534;2023-01-01T07:14:00;10.75;;;9.57;;
40252;SDS011;25972;51.854;4.534;2023-01-01T07:16:27;12.55;;;9.05;;
40252;SDS011;25972;51.854;4.534;2023-01-01T07:18:53;8.80;;;8.20;;
40252;SDS011;25972;51.854;4.534;2023-01-01T07:21:26;10.18;;;8.40;;
40252;SDS011;25972;51.854;4.534;2023-01-01T07:24:00;9.27;;;8.48;;
40252;SDS011;25972;51.854;4.534;2023-01-01T07:26:27;8.77;;;8.10;;
40252;SDS011;25972;51.854;4.534;2023-01-01T07:28:54;10.25;;;9.20;;
40252;SDS011;25972;51.854;4.534;2023-01-01T07:31:20;10.65;;;9.27;;
40252;SDS011;25972;51.854;4.534;2023-01-01T07:33:46;9.10;;;8.50;;
40252;SDS011;25972;51.854;4.534;2023-01-01T07:36:12;10.57;;;9.00;;
40252;SDS011;25972;51.854;4.534;2023-01-01T07:38:39;12.10;;;8.45;;
40252;SDS011;25972;51.854;4.534;2023-01-01T07:41:04;9.38;;;8.18;;
40252;SDS011;25972;51.854;4.534;2023-01-01T07:43:30;10.32;;;8.50;;
40252;SDS011;25972;51.854;4.534;2023-01-01T07:45:57;9.15;;;8.27;;
40252;SDS011;25972;51.854;4.534;2023-01-01T07:48:23;16.17;;;8.60;;
40252;SDS011;25972;51.854;4.534;2023-01-01T07:50:50;10.52;;;8.48;;
40252;SDS011;25972;51.854;4.534;2023-01-01T07:53:17;9.32;;;8.43;;
40252;SDS011;25972;51.854;4.534;2023-01-01T07:55:43;8.90;;;8.30;;
40252;SDS011;25972;51.854;4.534;2023-01-01T07:58:10;9.93;;;8.85;;
40252;SDS011;25972;51.854;4.534;2023-01-01T08:00:36;8.80;;;8.00;;
40252;SDS011;25972;51.854;4.534;2023-01-01T08:03:03;10.32;;;8.93;;
40252;SDS011;25972;51.854;4.534;2023-01-01T08:05:30;12.75;;;9.50;;
40252;SDS011;25972;51.854;4.534;2023-01-01T08:07:56;10.07;;;8.63;;
40252;SDS011;25972;51.854;4.534;2023-01-01T08:10:22;11.45;;;9.27;;
40252;SDS011;25972;51.854;4.534;2023-01-01T08:12:48;8.82;;;8.10;;
40252;SDS011;25972;51.854;4.534;2023-01-01T08:15:15;11.77;;;8.65;;
40252;SDS011;25972;51.854;4.534;2023-01-01T08:17:41;11.45;;;8.40;;
40252;SDS011;25972;51.854;4.534;2023-01-01T08:20:07;16.55;;;8.20;;
40252;SDS011;25972;51.854;4.534;2023-01-01T08:22:34;13.00;;;8.68;;
40252;SDS011;25972;51.854;4.534;2023-01-01T08:24:59;8.23;;;7.53;;
40252;SDS011;25972;51.854;4.534;2023-01-01T08:27:25;11.40;;;7.72;;
40252;SDS011;25972;51.854;4.534;2023-01-01T08:29:52;9.05;;;8.15;;
40252;SDS011;25972;51.854;4.534;2023-01-01T08:32:18;8.13;;;7.53;;
40252;SDS011;25972;51.854;4.534;2023-01-01T08:34:44;12.32;;;8.82;;
40252;SDS011;25972;51.854;4.534;2023-01-01T08:37:11;9.27;;;8.05;;
40252;SDS011;25972;51.854;4.534;2023-01-01T08:39:38;10.95;;;8.50;;
40252;SDS011;25972;51.854;4.534;2023-01-01T08:42:04;10.98;;;7.90;;
40252;SDS011;25972;51.854;4.534;2023-01-01T08:44:30;12.07;;;7.90;;
40252;SDS011;25972;51.854;4.534;2023-01-01T08:46:56;9.10;;;7.80;;
40252;SDS011;25972;51.854;4.534;2023-01-01T08:49:22;9.35;;;8.55;;
40252;SDS011;25972;51.854;4.534;2023-01-01T08:51:51;9.88;;;7.95;;
40252;SDS011;25972;51.854;4.534;2023-01-01T08:54:17;11.35;;;8.25;;
40252;SDS011;25972;51.854;4.534;2023-01-01T08:56:42;13.13;;;8.40;;
40252;SDS011;25972;51.854;4.534;2023-01-01T08:59:08;9.05;;;8.10;;
40252;SDS011;25972;51.854;4.534;2023-01-01T09:01:34;15.95;;;8.73;;
40252;SDS011;25972;51.854;4.534;2023-01-01T09:04:00;10.55;;;7.72;;
40252;SDS011;25972;51.854;4.534;2023-01-01T09:06:26;8.50;;;7.78;;
40252;SDS011;25972;51.854;4.534;2023-01-01T09:08:53;11.90;;;8.77;;
40252;SDS011;25972;51.854;4.534;2023-01-01T09:11:28;9.20;;;8.23;;
40252;SDS011;25972;51.854;4.534;2023-01-01T09:13:56;10.95;;;7.75;;
40252;SDS011;25972;51.854;4.534;2023-01-01T09:16:22;10.55;;;7.95;;
40252;SDS011;25972;51.854;4.534;2023-01-01T09:18:48;8.52;;;7.70;;
40252;SDS011;25972;51.854;4.534;2023-01-01T09:21:14;8.70;;;7.95;;
40252;SDS011;25972;51.854;4.534;2023-01-01T09:23:40;13.63;;;8.10;;
40252;SDS011;25972;51.854;4.534;2023-01-01T09:26:06;11.68;;;7.45;;
40252;SDS011;25972;51.854;4.534;2023-01-01T09:28:33;11.75;;;8.05;;
40252;SDS011;25972;51.854;4.534;2023-01-01T09:31:01;12.82;;;7.97;;
40252;SDS011;25972;51.854;4.534;2023-01-01T09:33:29;12.60;;;8.50;;
40252;SDS011;25972;51.854;4.534;2023-01-01T09:35:58;8.43;;;7.50;;
40252;SDS011;25972;51.854;4.534;2023-01-01T09:38:58;10.60;;;7.30;;
40252;SDS011;25972;51.854;4.534;2023-01-01T09:41:37;14.02;;;7.85;;
40252;SDS011;25972;51.854;4.534;2023-01-01T09:44:17;9.40;;;7.25;;
40252;SDS011;25972;51.854;4.534;2023-01-01T09:46:50;11.15;;;7.30;;
40252;SDS011;25972;51.854;4.534;2023-01-01T09:49:23;11.63;;;7.22;;
40252;SDS011;25972;51.854;4.534;2023-01-01T09:51:52;9.10;;;7.65;;
40252;SDS011;25972;51.854;4.534;2023-01-01T09:54:30;10.45;;;7.78;;
40252;SDS011;25972;51.854;4.534;2023-01-01T09:57:00;9.43;;;7.70;;
40252;SDS011;25972;51.854;4.534;2023-01-01T09:59:30;11.25;;;7.55;;
40252;SDS011;25972;51.854;4.534;2023-01-01T10:15:40;8.73;;;7.72;;
40252;SDS011;25972;51.854;4.534;2023-01-01T10:18:16;8.05;;;7.30;;
40252;SDS011;25972;51.854;4.534;2023-01-01T10:20:50;11.43;;;8.20;;
40252;SDS011;25972;51.854;4.534;2023-01-01T10:26:36;10.52;;;8.00;;
40252;SDS011;25972;51.854;4.534;2023-01-01T10:29:10;7.63;;;6.82;;
40252;SDS011;25972;51.854;4.534;2023-01-01T10:31:40;11.52;;;7.07;;
40252;SDS011;25972;51.854;4.534;2023-01-01T10:36:43;10.38;;;7.47;;
40252;SDS011;25972;51.854;4.534;2023-01-01T10:39:13;10.90;;;7.38;;
40252;SDS011;25972;51.854;4.534;2023-01-01T10:41:40;8.27;;;7.20;;
40252;SDS011;25972;51.854;4.534;2023-01-01T10:44:07;14.75;;;7.60;;
40252;SDS011;25972;51.854;4.534;2023-01-01T10:46:33;8.77;;;6.90;;
40252;SDS011;25972;51.854;4.534;2023-01-01T10:49:06;10.10;;;7.47;;
40252;SDS011;25972;51.854;4.534;2023-01-01T10:51:41;9.93;;;7.40;;
40252;SDS011;25972;51.854;4.534;2023-01-01T10:54:22;10.15;;;7.43;;
40252;SDS011;25972;51.854;4.534;2023-01-01T10:59:39;12.15;;;7.28;;
40252;SDS011;25972;51.854;4.534;2023-01-01T11:02:17;15.43;;;7.90;;
40252;SDS011;25972;51.854;4.534;2023-01-01T11:04:43;18.38;;;9.50;;
40252;SDS011;25972;51.854;4.534;2023-01-01T11:10:05;13.45;;;9.60;;
40252;SDS011;25972;51.854;4.534;2023-01-01T11:12:39;20.00;;;9.75;;
40252;SDS011;25972;51.854;4.534;2023-01-01T11:15:06;10.88;;;7.78;;
40252;SDS011;25972;51.854;4.534;2023-01-01T11:17:33;15.15;;;8.65;;
40252;SDS011;25972;51.854;4.534;2023-01-01T11:20:01;12.00;;;7.95;;
40252;SDS011;25972;51.854;4.534;2023-01-01T11:25:02;12.50;;;7.80;;
40252;SDS011;25972;51.854;4.534;2023-01-01T11:27:35;7.85;;;6.63;;
40252;SDS011;25972;51.854;4.534;2023-01-01T11:30:20;17.33;;;8.23;;
40252;SDS011;25972;51.854;4.534;2023-01-01T11:32:50;10.45;;;7.95;;
40252;SDS011;25972;51.854;4.534;2023-01-01T11:35:31;8.25;;;6.80;;
40252;SDS011;25972;51.854;4.534;2023-01-01T11:38:14;7.20;;;6.60;;
40252;SDS011;25972;51.854;4.534;2023-01-01T11:40:47;8.00;;;7.30;;
40252;SDS011;25972;51.854;4.534;2023-01-01T11:45:48;9.38;;;6.43;;
40252;SDS011;25972;51.854;4.534;2023-01-01T11:48:19;13.63;;;8.48;;
40252;SDS011;25972;51.854;4.534;2023-01-01T11:50:54;12.95;;;7.95;;
40252;SDS011;25972;51.854;4.534;2023-01-01T11:55:49;16.00;;;7.88;;
40252;SDS011;25972;51.854;4.534;2023-01-01T11:58:33;12.82;;;7.70;;
40252;SDS011;25972;51.854;4.534;2023-01-01T12:01:21;10.38;;;6.90;;
40252;SDS011;25972;51.854;4.534;2023-01-01T12:03:57;8.70;;;6.35;;
40252;SDS011;25972;51.854;4.534;2023-01-01T12:06:32;9.57;;;7.32;;
40252;SDS011;25972;51.854;4.534;2023-01-01T12:09:16;10.07;;;7.25;;
40252;SDS011;25972;51.854;4.534;2023-01-01T12:11:54;15.35;;;9.50;;
40252;SDS011;25972;51.854;4.534;2023-01-01T12:14:51;9.40;;;7.88;;
40252;SDS011;25972;51.854;4.534;2023-01-01T12:17:37;12.20;;;8.18;;
40252;SDS011;25972;51.854;4.534;2023-01-01T12:20:15;9.45;;;7.40;;
40252;SDS011;25972;51.854;4.534;2023-01-01T12:22:48;13.13;;;8.23;;
40252;SDS011;25972;51.854;4.534;2023-01-01T12:25:15;7.75;;;6.90;;
40252;SDS011;25972;51.854;4.534;2023-01-01T12:48:21;15.25;;;8.20;;
40252;SDS011;25972;51.854;4.534;2023-01-01T12:50:57;10.68;;;7.10;;
40252;SDS011;25972;51.854;4.534;2023-01-01T12:53:43;14.57;;;8.25;;
40252;SDS011;25972;51.854;4.534;2023-01-01T12:58:56;13.55;;;8.25;;
40252;SDS011;25972;51.854;4.534;2023-01-01T13:01:28;8.60;;;7.50;;
40252;SDS011;25972;51.854;4.534;2023-01-01T13:03:58;18.23;;;8.60;;
40252;SDS011;25972;51.854;4.534;2023-01-01T13:09:25;10.73;;;7.90;;
40252;SDS011;25972;51.854;4.534;2023-01-01T13:11:58;16.25;;;8.77;;
40252;SDS011;25972;51.854;4.534;2023-01-01T13:14:28;13.55;;;7.45;;
40252;SDS011;25972;51.854;4.534;2023-01-01T13:16:54;14.98;;;9.68;;
40252;SDS011;25972;51.854;4.534;2023-01-01T13:19:26;14.90;;;9.38;;
40252;SDS011;25972;51.854;4.534;2023-01-01T13:21:57;16.88;;;10.52;;
40252;SDS011;25972;51.854;4.534;2023-01-01T13:24:24;18.05;;;8.32;;
40252;SDS011;25972;51.854;4.534;2023-01-01T13:26:52;15.15;;;8.23;;
40252;SDS011;25972;51.854;4.534;2023-01-01T13:34:32;12.85;;;7.40;;
40252;SDS011;25972;51.854;4.534;2023-01-01T13:37:42;18.50;;;8.10;;
40252;SDS011;25972;51.854;4.534;2023-01-01T13:56:34;8.30;;;6.35;;
40252;SDS011;25972;51.854;4.534;2023-01-01T13:59:11;10.65;;;7.00;;
40252;SDS011;25972;51.854;4.534;2023-01-01T14:04:48;9.38;;;7.10;;
40252;SDS011;25972;51.854;4.534;2023-01-01T14:09:51;16.83;;;8.95;;
40252;SDS011;25972;51.854;4.534;2023-01-01T14:12:17;13.20;;;8.10;;
40252;SDS011;25972;51.854;4.534;2023-01-01T14:14:44;16.90;;;8.13;;
40252;SDS011;25972;51.854;4.534;2023-01-01T14:17:12;7.43;;;6.70;;
40252;SDS011;25972;51.854;4.534;2023-01-01T14:19:41;12.18;;;8.70;;
40252;SDS011;25972;51.854;4.534;2023-01-01T14:22:09;12.40;;;7.50;;
40252;SDS011;25972;51.854;4.534;2023-01-01T14:24:42;30.00;;;11.65;;
40252;SDS011;25972;51.854;4.534;2023-01-01T14:27:17;28.13;;;12.93;;
40252;SDS011;25972;51.854;4.534;2023-01-01T14:29:45;17.33;;;8.25;;
40252;SDS011;25972;51.854;4.534;2023-01-01T14:32:14;19.50;;;9.20;;
40252;SDS011;25972;51.854;4.534;2023-01-01T14:34:45;14.93;;;8.65;;
40252;SDS011;25972;51.854;4.534;2023-01-01T14:37:20;23.00;;;10.75;;
40252;SDS011;25972;51.854;4.534;2023-01-01T14:42:41;17.80;;;7.53;;
40252;SDS011;25972;51.854;4.534;2023-01-01T14:45:16;8.95;;;6.90;;
40252;SDS011;25972;51.854;4.534;2023-01-01T14:50:13;17.92;;;7.50;;
40252;SDS011;25972;51.854;4.534;2023-01-01T14:52:52;14.30;;;8.25;;
40252;SDS011;25972;51.854;4.534;2023-01-01T14:55:26;12.25;;;7.22;;
40252;SDS011;25972;51.854;4.534;2023-01-01T14:57:59;16.75;;;7.45;;
40252;SDS011;25972;51.854;4.534;2023-01-01T15:00:28;13.27;;;7.13;;
40252;SDS011;25972;51.854;4.534;2023-01-01T15:03:03;11.23;;;6.88;;
40252;SDS011;25972;51.854;4.534;2023-01-01T15:05:32;17.27;;;7.95;;
40252;SDS011;25972;51.854;4.534;2023-01-01T15:07:59;15.77;;;7.45;;
40252;SDS011;25972;51.854;4.534;2023-01-01T15:10:27;15.57;;;8.50;;
40252;SDS011;25972;51.854;4.534;2023-01-01T15:12:55;17.70;;;8.00;;
40252;SDS011;25972;51.854;4.534;2023-01-01T15:18:01;12.23;;;7.07;;
40252;SDS011;25972;51.854;4.534;2023-01-01T15:20:27;9.60;;;6.53;;
40252;SDS011;25972;51.854;4.534;2023-01-01T15:22:54;24.13;;;8.38;;
40252;SDS011;25972;51.854;4.534;2023-01-01T15:25:20;13.27;;;7.22;;
40252;SDS011;25972;51.854;4.534;2023-01-01T15:27:50;14.05;;;7.97;;
40252;SDS011;25972;51.854;4.534;2023-01-01T15:30:25;14.82;;;7.40;;
40252;SDS011;25972;51.854;4.534;2023-01-01T15:32:54;16.50;;;6.63;;
40252;SDS011;25972;51.854;4.534;2023-01-01T15:35:30;11.63;;;6.80;;
40252;SDS011;25972;51.854;4.534;2023-01-01T15:38:18;14.13;;;7.20;;
40252;SDS011;25972;51.854;4.534;2023-01-01T15:40:49;12.95;;;6.53;;
40252;SDS011;25972;51.854;4.534;2023-01-01T15:43:19;8.73;;;6.10;;
40252;SDS011;25972;51.854;4.534;2023-01-01T15:48:20;18.10;;;7.70;;
40252;SDS011;25972;51.854;4.534;2023-01-01T15:53:21;11.40;;;6.65;;
40252;SDS011;25972;51.854;4.534;2023-01-01T15:55:56;9.63;;;5.72;;
40252;SDS011;25972;51.854;4.534;2023-01-01T16:00:57;13.63;;;6.97;;
40252;SDS011;25972;51.854;4.534;2023-01-01T16:03:26;15.43;;;6.65;;
40252;SDS011;25972;51.854;4.534;2023-01-01T16:05:53;15.93;;;7.05;;
40252;SDS011;25972;51.854;4.534;2023-01-01T16:08:20;17.48;;;6.53;;
40252;SDS011;25972;51.854;4.534;2023-01-01T16:10:47;12.90;;;6.80;;
40252;SDS011;25972;51.854;4.534;2023-01-01T16:13:13;15.25;;;7.85;;
40252;SDS011;25972;51.854;4.534;2023-01-01T16:15:49;26.33;;;8.68;;
40252;SDS011;25972;51.854;4.534;2023-01-01T16:18:25;19.10;;;7.43;;
40252;SDS011;25972;51.854;4.534;2023-01-01T16:21:02;18.80;;;6.75;;
40252;SDS011;25972;51.854;4.534;2023-01-01T16:23:29;13.23;;;7.22;;
40252;SDS011;25972;51.854;4.534;2023-01-01T16:25:55;18.05;;;7.38;;
40252;SDS011;25972;51.854;4.534;2023-01-01T16:28:21;14.57;;;7.78;;
40252;SDS011;25972;51.854;4.534;2023-01-01T16:30:47;15.52;;;7.43;;
40252;SDS011;25972;51.854;4.534;2023-01-01T16:33:14;14.52;;;7.80;;
40252;SDS011;25972;51.854;4.534;2023-01-01T16:35:42;14.80;;;8.02;;
40252;SDS011;25972;51.854;4.534;2023-01-01T16:38:08;18.48;;;7.95;;
40252;SDS011;25972;51.854;4.534;2023-01-01T16:40:34;16.58;;;7.93;;
40252;SDS011;25972;51.854;4.534;2023-01-01T16:43:00;14.40;;;7.60;;
40252;SDS011;25972;51.854;4.534;2023-01-01T16:45:27;17.55;;;7.20;;
40252;SDS011;25972;51.854;4.534;2023-01-01T16:47:52;14.00;;;7.63;;
40252;SDS011;25972;51.854;4.534;2023-01-01T16:50:19;11.98;;;7.15;;
40252;SDS011;25972;51.854;4.534;2023-01-01T16:52:45;16.90;;;7.18;;
40252;SDS011;25972;51.854;4.534;2023-01-01T16:55:11;15.63;;;7.03;;
40252;SDS011;25972;51.854;4.534;2023-01-01T16:57:38;16.58;;;7.18;;
40252;SDS011;25972;51.854;4.534;2023-01-01T17:00:04;14.38;;;6.72;;
40252;SDS011;25972;51.854;4.534;2023-01-01T17:02:31;12.73;;;6.32;;
40252;SDS011;25972;51.854;4.534;2023-01-01T17:04:57;14.85;;;7.18;;
40252;SDS011;25972;51.854;4.534;2023-01-01T17:07:23;13.98;;;6.00;;
40252;SDS011;25972;51.854;4.534;2023-01-01T17:09:49;14.05;;;7.35;;
40252;SDS011;25972;51.854;4.534;2023-01-01T17:12:15;12.15;;;6.68;;
40252;SDS011;25972;51.854;4.534;2023-01-01T17:14:40;8.70;;;5.68;;
40252;SDS011;25972;51.854;4.534;2023-01-01T17:17:06;19.67;;;9.18;;